createdAt,value
2022-11-13T00:07:02.863Z,101195.66
2022-11-13T00:09:48.694Z,101193.81
2022-11-13T00:12:34.472Z,101152.22
2022-11-13T00:15:20.690Z,101178.31
2022-11-13T00:18:06.129Z,101169.50
2022-11-13T00:20:52.018Z,101173.19
2022-11-13T00:23:37.990Z,101179.03
2022-11-13T00:26:27.012Z,101166.03
2022-11-13T00:29:13.220Z,101165.91
2022-11-13T00:31:59.018Z,101166.22
2022-11-13T00:34:48.550Z,101159.75
2022-11-13T00:37:34.895Z,101170.94
2022-11-13T00:40:22.122Z,101153.88
2022-11-13T00:43:07.573Z,101160.44
2022-11-13T00:45:53.693Z,101161.13
2022-11-13T00:48:40.912Z,101164.22
2022-11-13T00:51:26.628Z,101158.06
2022-11-13T00:54:12.521Z,101159.41
2022-11-13T00:56:59.766Z,101156.94
2022-11-13T00:59:45.709Z,101147.03
2022-11-13T01:02:31.667Z,101156.31
2022-11-13T01:05:17.766Z,101155.78
2022-11-13T01:08:03.959Z,101142.28
2022-11-13T01:10:53.559Z,101140.63
2022-11-13T01:13:44.415Z,101150.25
2022-11-13T01:16:30.488Z,101140.53
2022-11-13T01:19:16.033Z,101154.81
2022-11-13T01:22:01.833Z,101154.38
2022-11-13T01:24:47.625Z,101144.22
2022-11-13T01:27:35.847Z,101160.97
2022-11-13T01:30:21.709Z,101131.84
2022-11-13T01:33:07.495Z,101145.31
2022-11-13T01:35:53.158Z,101110.41
2022-11-13T01:38:39.542Z,101136.22
2022-11-13T01:41:27.065Z,101148.50
2022-11-13T01:44:15.520Z,101152.25
2022-11-13T01:47:01.204Z,101153.25
2022-11-13T01:49:48.223Z,101163.47
2022-11-13T01:52:37.436Z,101156.00
2022-11-13T01:55:23.892Z,101144.09
2022-11-13T01:58:11.626Z,101146.31
2022-11-13T02:00:57.454Z,101143.69
2022-11-13T02:03:43.450Z,101132.72
2022-11-13T02:06:35.983Z,101154.41
2022-11-13T02:09:26.759Z,101151.91
2022-11-13T02:12:15.847Z,101158.81
2022-11-13T02:15:05.136Z,101160.16
2022-11-13T02:17:55.673Z,101154.38
2022-11-13T02:21:16.345Z,101157.44
2022-11-13T02:24:24.454Z,101155.72
2022-11-13T02:27:17.969Z,101138.34
2022-11-13T02:30:27.772Z,101160.91
2022-11-13T02:33:28.843Z,101150.47
2022-11-13T02:36:15.492Z,101143.28
2022-11-13T02:39:06.438Z,101140.50
2022-11-13T02:41:53.463Z,101131.09
2022-11-13T02:44:40.849Z,101141.63
2022-11-13T02:47:26.625Z,101124.50
2022-11-13T02:50:13.527Z,101147.03
2022-11-13T02:53:00.516Z,101149.56
2022-11-13T02:55:46.541Z,101139.28
2022-11-13T02:58:32.291Z,101119.19
2022-11-13T03:01:18.302Z,101158.34
2022-11-13T03:04:04.243Z,101156.75
2022-11-13T03:06:50.047Z,101151.72
2022-11-13T03:09:35.942Z,101113.47
2022-11-13T03:12:21.834Z,101147.28
2022-11-13T03:15:08.782Z,101141.22
2022-11-13T03:17:54.927Z,101143.59
2022-11-13T03:20:43.315Z,101140.13
2022-11-13T03:23:28.934Z,101136.44
2022-11-13T03:26:17.112Z,101140.78
2022-11-13T03:29:03.224Z,101143.72
2022-11-13T03:31:49.029Z,101142.75
2022-11-13T03:34:35.011Z,101150.31
2022-11-13T03:37:21.045Z,101140.53
2022-11-13T03:40:07.439Z,101153.69
2022-11-13T03:42:53.119Z,101143.81
2022-11-13T03:45:39.361Z,101143.34
2022-11-13T03:48:25.223Z,101156.03
2022-11-13T03:51:11.237Z,101162.88
2022-11-13T03:53:56.739Z,101163.44
2022-11-13T03:56:42.558Z,101165.75
2022-11-13T03:59:28.638Z,101146.63
2022-11-13T04:02:14.367Z,101152.34
2022-11-13T04:05:00.487Z,101149.50
2022-11-13T04:07:46.275Z,101142.03
2022-11-13T04:10:32.295Z,101156.47
2022-11-13T04:13:18.012Z,101157.41
2022-11-13T04:16:05.086Z,101143.50
2022-11-13T04:18:50.825Z,101153.84
2022-11-13T04:21:38.045Z,101140.19
2022-11-13T04:24:24.000Z,101140.59
2022-11-13T04:27:09.887Z,101140.16
2022-11-13T04:29:56.890Z,101147.63
2022-11-13T04:32:42.710Z,101138.16
2022-11-13T04:35:29.783Z,101132.03
2022-11-13T04:38:15.995Z,101148.81
2022-11-13T04:41:20.106Z,101144.41
2022-11-13T04:44:06.120Z,101160.03
2022-11-13T04:46:51.852Z,101146.38
2022-11-13T04:49:37.876Z,101151.47
2022-11-13T04:52:23.754Z,101163.91
2022-11-13T04:55:10.304Z,101136.22
2022-11-13T04:57:56.233Z,101154.34
2022-11-13T05:00:42.083Z,101135.25
2022-11-13T05:03:27.987Z,101138.41
2022-11-13T05:06:14.268Z,101147.31
2022-11-13T05:08:59.880Z,101140.75
2022-11-13T05:11:45.701Z,101145.22
2022-11-13T05:14:31.635Z,101147.66
2022-11-13T05:17:17.570Z,101136.50
2022-11-13T05:20:03.992Z,101148.72
2022-11-13T05:22:50.093Z,101142.75
2022-11-13T05:25:39.255Z,101138.16
2022-11-13T05:28:27.475Z,101138.28
2022-11-13T05:31:15.715Z,101138.47
2022-11-13T05:34:05.954Z,101147.38
2022-11-13T05:36:52.241Z,101143.47
2022-11-13T05:39:38.284Z,101150.72
2022-11-13T05:42:24.374Z,101146.25
2022-11-13T05:45:10.986Z,101139.75
2022-11-13T05:47:58.000Z,101156.13
2022-11-13T05:50:43.878Z,101147.22
2022-11-13T05:53:29.532Z,101151.69
2022-11-13T05:56:23.258Z,101150.72
2022-11-13T05:59:08.957Z,101161.34
2022-11-13T06:01:55.066Z,101160.53
2022-11-13T06:04:40.906Z,101161.91
2022-11-13T06:07:26.679Z,101162.81
2022-11-13T06:10:13.467Z,101154.75
2022-11-13T06:12:59.319Z,101151.50
2022-11-13T06:15:45.222Z,101156.81
2022-11-13T06:18:31.118Z,101167.56
2022-11-13T06:21:20.886Z,101179.06
2022-11-13T06:24:08.191Z,101153.03
2022-11-13T06:26:55.961Z,101170.91
2022-11-13T06:29:41.661Z,101178.25
2022-11-13T06:32:27.341Z,101178.09
2022-11-13T06:35:13.142Z,101178.09
2022-11-13T06:37:58.913Z,101177.38
2022-11-13T06:40:45.092Z,101174.50
2022-11-13T06:43:32.057Z,101178.41
2022-11-13T06:46:21.152Z,101199.41
2022-11-13T06:49:06.870Z,101175.81
2022-11-13T06:51:52.533Z,101186.91
2022-11-13T06:54:38.449Z,101197.97
2022-11-13T06:57:24.235Z,101187.78
2022-11-13T07:00:12.368Z,101185.28
2022-11-13T07:02:58.143Z,101185.47
2022-11-13T07:05:44.251Z,101195.69
2022-11-13T07:08:30.142Z,101190.53
2022-11-13T07:11:21.531Z,101191.09
2022-11-13T07:14:07.581Z,101202.31
2022-11-13T07:17:10.407Z,101220.16
2022-11-13T07:20:00.092Z,101195.97
2022-11-13T07:22:47.028Z,101213.81
2022-11-13T07:25:35.217Z,101206.19
2022-11-13T07:28:20.761Z,101197.84
2022-11-13T07:31:07.624Z,101198.44
2022-11-13T07:33:53.675Z,101206.94
2022-11-13T07:36:39.308Z,101190.22
2022-11-13T07:39:25.360Z,101204.63
2022-11-13T07:42:11.552Z,101203.06
2022-11-13T07:44:57.807Z,101202.34
2022-11-13T07:47:44.226Z,101188.66
2022-11-13T07:50:33.600Z,101224.53
2022-11-13T07:53:20.961Z,101216.31
2022-11-13T07:56:07.499Z,101220.19
2022-11-13T07:58:53.518Z,101233.31
2022-11-13T08:01:39.371Z,101222.50
2022-11-13T08:04:25.178Z,101209.25
2022-11-13T08:07:13.368Z,101229.41
2022-11-13T08:09:59.495Z,101225.50
2022-11-13T08:12:45.670Z,101232.84
2022-11-13T08:15:32.098Z,101222.06
2022-11-13T08:18:17.955Z,101234.31
2022-11-13T08:21:08.095Z,101231.88
2022-11-13T08:23:57.774Z,101240.66
2022-11-13T08:26:43.540Z,101241.81
2022-11-13T08:29:29.702Z,101251.28
2022-11-13T08:32:15.784Z,101246.53
2022-11-13T08:35:01.613Z,101243.53
2022-11-13T08:37:47.538Z,101247.25
2022-11-13T08:40:33.741Z,101255.47
2022-11-13T08:43:19.775Z,101251.13
2022-11-13T08:46:06.238Z,101246.13
2022-11-13T08:48:52.270Z,101248.28
2022-11-13T08:51:37.959Z,101254.03
2022-11-13T08:54:24.744Z,101256.63
2022-11-13T08:57:10.735Z,101255.50
2022-11-13T08:59:56.559Z,101266.88
2022-11-13T09:02:42.283Z,101271.19
2022-11-13T09:05:28.803Z,101266.00
2022-11-13T09:08:14.681Z,101267.00
2022-11-13T09:11:05.904Z,101276.34
2022-11-13T09:13:53.499Z,101276.91
2022-11-13T09:16:39.711Z,101266.53
2022-11-13T09:19:27.469Z,101271.53
2022-11-13T09:22:13.470Z,101275.59
2022-11-13T09:24:59.544Z,101269.59
2022-11-13T09:27:52.948Z,101279.63
2022-11-13T09:30:40.775Z,101278.75
2022-11-13T09:33:27.336Z,101287.16
2022-11-13T09:36:15.017Z,101303.97
2022-11-13T09:39:03.646Z,101297.19
2022-11-13T09:42:01.428Z,101294.78
2022-11-13T09:44:52.634Z,101315.00
2022-11-13T09:47:43.726Z,101319.41
2022-11-13T09:50:32.799Z,101304.44
2022-11-13T09:53:19.223Z,101322.50
2022-11-13T09:56:28.317Z,101329.38
2022-11-13T09:59:38.017Z,101341.19
2022-11-13T10:02:30.579Z,101334.06
2022-11-13T10:05:48.578Z,101335.03
2022-11-13T10:08:57.632Z,101337.34
2022-11-13T10:11:51.302Z,101336.91
2022-11-13T10:14:46.168Z,101347.66
2022-11-13T10:17:46.730Z,101350.03
2022-11-13T10:20:49.440Z,101348.44
2022-11-13T10:23:38.195Z,101350.69
2022-11-13T10:26:27.863Z,101356.50
2022-11-13T10:29:16.682Z,101358.94
2022-11-13T10:32:23.266Z,101359.34
2022-11-13T10:35:12.405Z,101367.72
2022-11-13T10:38:08.810Z,101370.31
2022-11-13T10:41:11.453Z,101374.63
2022-11-13T10:44:20.498Z,101377.28
2022-11-13T10:47:36.053Z,101365.91
2022-11-13T10:50:29.525Z,101372.69
2022-11-13T10:53:18.541Z,101364.72
2022-11-13T10:56:23.954Z,101386.34
2022-11-13T10:59:18.653Z,101377.47
2022-11-13T11:02:20.984Z,101383.66
2022-11-13T11:05:18.562Z,101371.31
2022-11-13T11:08:10.499Z,101361.84
2022-11-13T11:11:33.637Z,101365.28
2022-11-13T11:14:31.327Z,101373.50
2022-11-13T11:17:18.921Z,101376.16
2022-11-13T11:20:40.355Z,101370.69
2022-11-13T11:23:38.125Z,101361.50
2022-11-13T11:26:30.073Z,101379.22
2022-11-13T11:29:25.519Z,101381.53
2022-11-13T11:32:25.792Z,101374.91
2022-11-13T11:35:18.134Z,101381.09
2022-11-13T11:38:18.768Z,101385.75
2022-11-13T11:41:16.487Z,101393.88
2022-11-13T11:44:38.742Z,101390.72
2022-11-13T11:47:25.066Z,101381.16
2022-11-13T11:50:16.299Z,101372.84
2022-11-13T11:53:05.688Z,101391.47
2022-11-13T11:56:15.901Z,101397.91
2022-11-13T11:59:10.585Z,101385.56
2022-11-13T12:02:11.242Z,101378.69
2022-11-13T12:05:16.984Z,101375.44
2022-11-13T12:08:11.664Z,101377.22
2022-11-13T12:11:31.452Z,101381.03
2022-11-13T12:14:42.657Z,101361.19
2022-11-13T12:17:28.284Z,101382.75
2022-11-13T12:20:52.607Z,101381.56
2022-11-13T12:23:47.448Z,101372.91
2022-11-13T12:26:41.713Z,101361.25
2022-11-13T12:29:48.251Z,101373.63
2022-11-13T12:32:51.361Z,101361.44
2022-11-13T12:35:38.613Z,101366.53
2022-11-13T12:38:44.642Z,101376.22
2022-11-13T12:41:46.761Z,101374.66
2022-11-13T12:44:47.482Z,101373.50
2022-11-13T12:47:35.953Z,101349.41
2022-11-13T12:50:32.568Z,101368.38
2022-11-13T12:53:29.611Z,101357.09
2022-11-13T12:56:26.624Z,101361.78
2022-11-13T12:59:30.732Z,101360.84
2022-11-13T13:02:35.345Z,101357.47
2022-11-13T13:05:30.905Z,101352.00
2022-11-13T13:08:40.464Z,101352.78
2022-11-13T13:11:33.002Z,101362.66
2022-11-13T13:14:21.630Z,101363.84
2022-11-13T13:17:17.759Z,101365.38
2022-11-13T13:20:05.766Z,101366.56
2022-11-13T13:23:00.476Z,101369.03
2022-11-13T13:25:46.282Z,101364.47
2022-11-13T13:28:33.362Z,101364.19
2022-11-13T13:31:45.473Z,101355.72
2022-11-13T13:34:51.313Z,101356.09
2022-11-13T13:38:11.191Z,101344.81
2022-11-13T13:41:16.156Z,101352.88
2022-11-13T13:44:26.816Z,101342.75
2022-11-13T13:47:29.207Z,101348.94
2022-11-13T13:50:19.451Z,101349.69
2022-11-13T13:53:06.011Z,101349.84
2022-11-13T13:55:55.915Z,101345.28
2022-11-13T13:58:42.708Z,101348.66
2022-11-13T14:01:35.496Z,101358.00
2022-11-13T14:04:23.545Z,101354.06
2022-11-13T14:07:47.493Z,101350.13
2022-11-13T14:10:36.448Z,101354.78
2022-11-13T14:13:27.892Z,101363.72
2022-11-13T14:16:14.375Z,101356.03
2022-11-13T14:19:05.064Z,101358.97
2022-11-13T14:21:54.648Z,101339.59
2022-11-13T14:24:45.654Z,101356.53
2022-11-13T14:27:32.503Z,101342.47
2022-11-13T14:30:36.658Z,101349.91
2022-11-13T14:33:25.758Z,101355.53
2022-11-13T14:36:14.885Z,101346.81
2022-11-13T14:39:02.208Z,101348.97
2022-11-13T14:41:54.502Z,101334.59
2022-11-13T14:44:40.340Z,101347.53
2022-11-13T14:47:29.651Z,101341.88
2022-11-13T14:50:21.662Z,101339.13
2022-11-13T14:53:10.399Z,101333.81
2022-11-13T14:55:59.228Z,101350.97
2022-11-13T14:58:49.448Z,101341.72
2022-11-13T15:01:35.298Z,101333.38
2022-11-13T15:04:21.596Z,101336.88
2022-11-13T15:07:45.809Z,101328.34
2022-11-13T15:10:32.216Z,101346.81
2022-11-13T15:13:20.073Z,101347.06
2022-11-13T15:16:06.712Z,101357.50
2022-11-13T15:19:05.378Z,101340.53
2022-11-13T15:22:25.240Z,101341.47
2022-11-13T15:24:58.352Z,101346.00
2022-11-13T15:27:44.683Z,101343.16
2022-11-13T15:30:30.201Z,101352.13
2022-11-13T15:33:16.674Z,101346.75
2022-11-13T15:36:02.096Z,101348.63
2022-11-13T15:38:48.033Z,101352.88
2022-11-13T15:41:34.411Z,101358.09
2022-11-13T15:44:20.101Z,101357.44
2022-11-13T15:47:26.060Z,101355.13
2022-11-13T15:50:16.531Z,101360.06
2022-11-13T15:53:06.433Z,101352.91
2022-11-13T15:55:53.571Z,101346.19
2022-11-13T15:58:42.017Z,101352.41
2022-11-13T16:01:28.136Z,101352.50
2022-11-13T16:04:16.466Z,101357.84
2022-11-13T16:07:02.331Z,101333.78
2022-11-13T16:09:48.315Z,101364.00
2022-11-13T16:12:34.308Z,101361.41
2022-11-13T16:15:20.266Z,101360.66
2022-11-13T16:18:09.135Z,101354.22
2022-11-13T16:20:55.101Z,101354.97
2022-11-13T16:23:40.919Z,101354.09
2022-11-13T16:26:27.878Z,101353.63
2022-11-13T16:29:20.773Z,101357.84
2022-11-13T16:32:06.939Z,101365.00
2022-11-13T16:34:52.316Z,101371.19
2022-11-13T16:37:40.917Z,101370.19
2022-11-13T16:40:27.039Z,101375.16
2022-11-13T16:43:13.600Z,101373.66
2022-11-13T16:46:01.488Z,101369.69
2022-11-13T16:48:48.354Z,101373.25
2022-11-13T16:51:34.477Z,101372.09
2022-11-13T16:54:20.128Z,101384.06
2022-11-13T16:57:05.783Z,101381.72
2022-11-13T16:59:51.310Z,101381.44
2022-11-13T17:02:37.390Z,101375.97
2022-11-13T17:05:25.620Z,101375.34
2022-11-13T17:08:12.967Z,101368.50
2022-11-13T17:10:59.025Z,101374.28
2022-11-13T17:13:49.196Z,101374.59
2022-11-13T17:16:34.651Z,101377.72
2022-11-13T17:19:20.523Z,101382.16
2022-11-13T17:22:06.622Z,101384.44
2022-11-13T17:24:52.086Z,101385.97
2022-11-13T17:27:37.653Z,101382.66
2022-11-13T17:30:23.614Z,101386.81
2022-11-13T17:33:09.467Z,101387.69
2022-11-13T17:35:56.048Z,101386.41
2022-11-13T17:38:43.280Z,101397.63
2022-11-13T17:41:36.596Z,101396.09
2022-11-13T17:44:22.641Z,101393.13
2022-11-13T17:47:08.523Z,101399.56
2022-11-13T17:49:54.802Z,101396.91
2022-11-13T17:52:41.035Z,101407.22
2022-11-13T17:55:26.886Z,101404.50
2022-11-13T17:58:12.494Z,101398.06
2022-11-13T18:01:05.703Z,101400.91
2022-11-13T18:03:56.525Z,101396.31
2022-11-13T18:06:42.326Z,101402.28
2022-11-13T18:09:28.195Z,101396.56
2022-11-13T18:12:14.279Z,101398.41
2022-11-13T18:14:59.963Z,101399.97
2022-11-13T18:17:45.497Z,101397.50
2022-11-13T18:20:31.513Z,101395.97
2022-11-13T18:23:20.679Z,101395.22
2022-11-13T18:26:11.363Z,101392.09
2022-11-13T18:28:57.367Z,101397.00
2022-11-13T18:31:43.388Z,101400.22
2022-11-13T18:34:29.154Z,101404.13
2022-11-13T18:37:14.897Z,101406.72
2022-11-13T18:40:01.916Z,101408.53
2022-11-13T18:42:48.676Z,101403.59
2022-11-13T18:45:34.368Z,101399.78
2022-11-13T18:48:20.031Z,101400.75
2022-11-13T18:51:06.943Z,101395.81
2022-11-13T18:53:53.229Z,101402.81
2022-11-13T18:56:40.917Z,101400.22
2022-11-13T18:59:26.334Z,101397.78
2022-11-13T19:02:14.114Z,101397.63
2022-11-13T19:05:01.662Z,101401.66
2022-11-13T19:07:48.345Z,101401.59
2022-11-13T19:10:34.348Z,101405.84
2022-11-13T19:13:20.031Z,101417.47
2022-11-13T19:16:10.852Z,101416.31
2022-11-13T19:18:57.582Z,101412.47
2022-11-13T19:21:44.369Z,101422.50
2022-11-13T19:24:31.250Z,101424.34
2022-11-13T19:27:20.184Z,101429.47
2022-11-13T19:30:07.117Z,101426.75
2022-11-13T19:32:52.936Z,101419.75
2022-11-13T19:35:38.525Z,101410.50
2022-11-13T19:38:24.896Z,101414.06
2022-11-13T19:41:11.936Z,101418.84
2022-11-13T19:43:58.271Z,101395.50
2022-11-13T19:46:45.363Z,101391.91
2022-11-13T19:49:31.175Z,101409.19
2022-11-13T19:52:16.894Z,101404.19
2022-11-13T19:55:03.334Z,101408.34
2022-11-13T19:57:50.363Z,101409.75
2022-11-13T20:00:36.481Z,101421.22
2022-11-13T20:03:23.039Z,101419.47
2022-11-13T20:06:10.395Z,101420.56
2022-11-13T20:08:55.932Z,101411.91
2022-11-13T20:11:41.749Z,101415.59
2022-11-13T20:14:27.858Z,101405.16
2022-11-13T20:17:14.552Z,101415.06
2022-11-13T20:20:01.124Z,101413.84
2022-11-13T20:22:47.043Z,101415.72
2022-11-13T20:25:32.489Z,101415.09
2022-11-13T20:28:18.314Z,101405.28
2022-11-13T20:31:21.846Z,101401.47
2022-11-13T20:34:07.505Z,101405.41
2022-11-13T20:36:53.625Z,101399.41
2022-11-13T20:39:42.044Z,101403.22
2022-11-13T20:42:28.080Z,101408.13
2022-11-13T20:45:13.842Z,101405.69
2022-11-13T20:47:59.244Z,101403.81
2022-11-13T20:50:45.211Z,101400.97
2022-11-13T20:53:30.971Z,101406.66
2022-11-13T20:56:16.755Z,101401.41
2022-11-13T20:59:04.283Z,101401.53
2022-11-13T21:01:49.946Z,101406.06
2022-11-13T21:04:35.991Z,101394.00
2022-11-13T21:07:21.926Z,101391.59
2022-11-13T21:10:08.010Z,101394.13
2022-11-13T21:12:54.751Z,101384.91
2022-11-13T21:15:40.532Z,101387.28
2022-11-13T21:18:29.005Z,101385.59
2022-11-13T21:21:19.514Z,101382.00
2022-11-13T21:24:05.434Z,101388.31
2022-11-13T21:26:52.016Z,101385.47
2022-11-13T21:29:37.662Z,101385.59
2022-11-13T21:32:23.539Z,101383.56
2022-11-13T21:35:09.472Z,101376.16
2022-11-13T21:37:55.126Z,101382.38
2022-11-13T21:40:42.256Z,101380.41
2022-11-13T21:43:27.998Z,101383.13
2022-11-13T21:46:14.715Z,101380.03
2022-11-13T21:49:02.649Z,101387.56
2022-11-13T21:51:48.329Z,101377.31
2022-11-13T21:54:34.053Z,101382.50
2022-11-13T21:57:22.972Z,101386.63
2022-11-13T22:00:09.060Z,101391.72
2022-11-13T22:02:54.512Z,101379.19
2022-11-13T22:05:40.304Z,101392.56
2022-11-13T22:08:26.045Z,101383.72
2022-11-13T22:11:12.486Z,101388.69
2022-11-13T22:13:58.403Z,101391.75
2022-11-13T22:16:45.021Z,101389.34
2022-11-13T22:19:35.634Z,101382.66
2022-11-13T22:22:21.798Z,101383.53
2022-11-13T22:25:07.642Z,101374.03
2022-11-13T22:27:53.466Z,101376.19
2022-11-13T22:30:39.253Z,101380.03
2022-11-13T22:33:28.833Z,101377.16
2022-11-13T22:36:15.832Z,101373.41
2022-11-13T22:39:02.093Z,101362.59
2022-11-13T22:41:47.466Z,101367.91
2022-11-13T22:44:54.425Z,101374.63
2022-11-13T22:47:38.719Z,101379.06
2022-11-13T22:50:24.417Z,101377.63
2022-11-13T22:53:14.710Z,101380.81
2022-11-13T22:56:01.210Z,101376.25
2022-11-13T22:58:47.152Z,101377.00
2022-11-13T23:01:34.082Z,101373.97
2022-11-13T23:04:19.795Z,101375.94
2022-11-13T23:07:05.772Z,101374.53
2022-11-13T23:09:51.491Z,101369.97
2022-11-13T23:12:38.391Z,101372.00
2022-11-13T23:15:25.227Z,101369.81
2022-11-13T23:18:11.016Z,101369.53
2022-11-13T23:20:57.123Z,101369.28
2022-11-13T23:23:43.248Z,101369.00
2022-11-13T23:26:28.766Z,101361.38
2022-11-13T23:29:14.816Z,101356.72
2022-11-13T23:32:00.897Z,101348.69
2022-11-13T23:34:59.240Z,101353.16
2022-11-13T23:37:45.566Z,101350.88
2022-11-13T23:40:31.209Z,101346.53
2022-11-13T23:43:16.922Z,101357.16
2022-11-13T23:46:02.526Z,101353.88
2022-11-13T23:48:48.103Z,101351.72
2022-11-13T23:51:33.609Z,101357.47
2022-11-13T23:54:19.506Z,101358.34
2022-11-13T23:57:05.513Z,101360.63
2022-11-13T23:59:51.139Z,101353.88
